Time;durP1;ratioP1;P1;durP2;ratioP2;P2;SDS_P1;SDS_P2;PMS_P1;PMS_P2;Temp;Humidity;BMP_temperature;BMP_pressure;BME280_temperature;BME280_humidity;BME280_pressure;Samples;Min_cycle;Max_cycle;Signal;HPM_P1;HPM_P2
2021/06/16 00:01:54;;;;;;;5.13;2.70;;;;;;;20.28;57.36;100330.97;6311677;22;20003;-71
2021/06/16 00:04:26;;;;;;;2.33;2.13;;;;;;;20.22;57.44;100330.63;6311857;22;19999;-71
2021/06/16 00:06:55;;;;;;;8.48;2.38;;;;;;;20.17;58.02;100336.75;6311857;22;20124;-71
2021/06/16 00:09:27;;;;;;;2.45;2.22;;;;;;;20.09;58.07;100330.44;6311795;22;20011;-70
2021/06/16 00:11:52;;;;;;;2.33;2.17;;;;;;;20.18;58.07;100335.53;6307607;22;20474;-71
2021/06/16 00:14:19;;;;;;;4.10;2.10;;;;;;;20.05;58.42;100334.50;6311890;22;20083;-70
2021/06/16 00:16:48;;;;;;;3.85;2.17;;;;;;;20.07;58.68;100332.84;6311896;22;20010;-71
2021/06/16 00:19:14;;;;;;;5.65;2.42;;;;;;;20.15;58.50;100337.19;6311741;22;20014;-71
2021/06/16 00:21:42;;;;;;;4.63;2.47;;;;;;;20.13;58.39;100333.19;6312424;22;20087;-71
2021/06/16 00:24:18;;;;;;;3.60;2.45;;;;;;;20.08;58.77;100339.28;6312371;22;20315;-72
2021/06/16 00:26:46;;;;;;;2.88;2.67;;;;;;;20.05;58.71;100328.88;6311686;22;20007;-71
2021/06/16 00:29:12;;;;;;;2.60;2.40;;;;;;;20.01;59.48;100328.09;6311769;22;20087;-71
2021/06/16 00:31:40;;;;;;;3.33;2.50;;;;;;;20.01;59.43;100328.09;6311686;22;20003;-71
2021/06/16 00:34:06;;;;;;;3.30;2.90;;;;;;;20.08;58.49;100319.53;6311688;22;20006;-70
2021/06/16 00:36:34;;;;;;;3.10;2.70;;;;;;;20.00;58.93;100324.50;6311674;22;20013;-71
2021/06/16 00:39:00;;;;;;;2.83;2.63;;;;;;;19.93;58.98;100316.13;6311682;22;20078;-71
2021/06/16 00:41:27;;;;;;;2.40;2.20;;;;;;;19.96;58.79;100315.25;6328337;22;20101;-71
2021/06/16 00:43:55;;;;;;;4.25;2.65;;;;;;;19.83;59.49;100317.06;6338415;22;20010;-71
2021/06/16 00:46:21;;;;;;;2.53;2.33;;;;;;;19.86;59.35;100310.53;6338147;22;20488;-71
2021/06/16 00:48:47;;;;;;;3.05;2.70;;;;;;;19.79;59.48;100308.63;6311653;22;20007;-71
2021/06/16 00:51:12;;;;;;;3.05;2.45;;;;;;;19.70;59.63;100301.88;6337812;22;20094;-70
2021/06/16 00:53:41;;;;;;;2.95;2.20;;;;;;;19.71;59.78;100307.13;6338507;22;19999;-72
2021/06/16 00:56:09;;;;;;;3.05;2.25;;;;;;;19.69;60.00;100306.72;6338118;22;20007;-71
2021/06/16 00:58:39;;;;;;;2.45;2.25;;;;;;;19.65;60.21;100308.78;6337716;22;20003;-71
2021/06/16 01:01:18;;;;;;;2.15;2.05;;;;;;;19.59;60.16;100296.38;6337682;22;20003;-72
2021/06/16 01:03:56;;;;;;;3.15;2.95;;;;;;;19.55;60.79;100304.88;6337509;22;20003;-72
2021/06/16 01:06:36;;;;;;;2.97;2.67;;;;;;;19.49;60.59;100294.44;6338225;22;20404;-71
2021/06/16 01:09:26;;;;;;;6.90;2.70;;;;;;;19.45;60.74;100302.19;6338620;22;20011;-71
2021/06/16 01:12:04;;;;;;;2.67;2.28;;;;;;;19.42;60.98;100303.00;6337420;22;20019;-71
2021/06/16 01:14:53;;;;;;;2.75;2.45;;;;;;;19.33;61.14;100301.50;6338521;22;20018;-71
2021/06/16 01:17:34;;;;;;;2.92;2.17;;;;;;;19.26;61.57;100290.28;6337498;22;20031;-72
2021/06/16 01:20:09;;;;;;;2.35;2.15;;;;;;;19.33;61.54;100306.31;6337802;22;20410;-71
2021/06/16 01:22:45;;;;;;;5.57;2.58;;;;;;;19.35;61.15;100299.03;6337719;22;20017;-72
2021/06/16 01:25:39;;;;;;;3.70;2.90;;;;;;;19.36;60.97;100297.03;6337342;22;19998;-71
2021/06/16 01:28:08;;;;;;;;;;;;;;;19.32;61.39;100301.91;6337967;22;20041;-70
2021/06/16 01:30:36;;;;;;;2.65;2.45;;;;;;;19.30;61.03;100302.31;6337426;22;20337;-71
2021/06/16 01:33:04;;;;;;;1.98;1.88;;;;;;;19.25;61.24;100294.31;6337332;22;20431;-72
2021/06/16 01:35:38;;;;;;;2.95;2.22;;;;;;;19.17;61.34;100292.78;6337384;22;20007;-71
2021/06/16 01:38:06;;;;;;;3.08;2.13;;;;;;;19.22;60.66;100285.88;6338591;22;20007;-71
2021/06/16 01:40:33;;;;;;;4.00;2.33;;;;;;;19.17;60.76;100278.69;6338834;22;20014;-71
2021/06/16 01:43:01;;;;;;;2.47;2.25;;;;;;;19.09;61.25;100280.00;6339417;22;20007;-71
2021/06/16 01:45:30;;;;;;;2.83;2.03;;;;;;;18.98;61.46;100291.38;6339217;22;20300;-71
2021/06/16 01:47:58;;;;;;;2.08;1.92;;;;;;;18.97;60.95;100277.69;6339455;22;20159;-70
2021/06/16 01:50:31;;;;;;;2.20;2.00;;;;;;;18.97;61.26;100278.50;6338975;22;20007;-71
2021/06/16 01:53:02;;;;;;;3.53;2.47;;;;;;;18.92;61.52;100273.31;6339051;22;20038;-71
2021/06/16 01:55:31;;;;;;;2.80;2.20;;;;;;;18.96;61.30;100270.44;6340967;22;20010;-72
2021/06/16 01:57:58;;;;;;;2.53;2.30;;;;;;;18.97;61.34;100277.69;6338911;22;20010;-71
2021/06/16 02:00:24;;;;;;;2.47;2.28;;;;;;;18.98;61.39;100270.84;6338974;22;20006;-71
2021/06/16 02:02:53;;;;;;;3.33;2.30;;;;;;;19.06;61.41;100275.16;6313243;22;20011;-71
2021/06/16 02:05:20;;;;;;;3.33;2.70;;;;;;;18.95;61.59;100280.91;6338891;22;20082;-71
2021/06/16 02:08:01;;;;;;;2.10;2.00;;;;;;;18.93;61.94;100276.94;6338899;22;20013;-70
2021/06/16 02:10:36;;;;;;;5.25;2.78;;;;;;;18.88;62.29;100277.38;6338879;22;20026;-70
2021/06/16 02:13:08;;;;;;;2.53;2.00;;;;;;;18.83;62.57;100270.97;6338785;22;20003;-71
2021/06/16 02:15:38;;;;;;;2.50;2.20;;;;;;;18.95;62.39;100280.13;6339134;22;20422;-70
2021/06/16 02:18:09;;;;;;;2.80;1.98;;;;;;;18.95;62.45;100277.31;6339091;22;20070;-70
2021/06/16 02:20:36;;;;;;;2.33;2.13;;;;;;;19.00;62.17;100271.22;6339795;22;20082;-71
2021/06/16 02:23:04;;;;;;;2.60;2.22;;;;;;;19.06;61.55;100275.16;6338944;22;20345;-70
2021/06/16 02:25:35;;;;;;;14.55;12.27;;;;;;;19.00;61.50;100272.00;6339368;22;20361;-71
2021/06/16 02:28:01;;;;;;;35.03;29.98;;;;;;;18.99;61.55;100269.63;6338580;22;20007;-71
2021/06/16 02:30:29;;;;;;;50.45;43.45;;;;;;;18.95;61.65;100269.63;6338597;22;20003;-70
2021/06/16 02:32:58;;;;;;;36.13;30.55;;;;;;;18.84;62.06;100272.56;6338877;22;20063;-71
2021/06/16 02:35:24;;;;;;;18.35;14.40;;;;;;;18.83;61.86;100270.97;6338607;22;20007;-70
2021/06/16 02:38:01;;;;;;;8.93;8.05;;;;;;;18.77;62.32;100267.00;6338554;22;20003;-70
2021/06/16 02:40:35;;;;;;;6.25;5.63;;;;;;;18.73;62.35;100271.88;6338196;22;20026;-71
2021/06/16 02:43:01;;;;;;;6.25;5.57;;;;;;;18.74;62.70;100262.19;6338786;22;20011;-71
2021/06/16 02:45:30;;;;;;;4.57;4.18;;;;;;;18.71;62.65;100277.13;6338481;22;20049;-71
2021/06/16 02:47:58;;;;;;;4.53;3.88;;;;;;;18.76;62.68;100273.88;6338811;22;20063;-71
2021/06/16 02:50:29;;;;;;;3.78;3.30;;;;;;;18.81;62.30;100272.63;6338206;22;20013;-70
2021/06/16 02:52:59;;;;;;;7.25;5.30;;;;;;;18.81;62.14;100276.22;6339125;22;20407;-70
2021/06/16 02:55:26;;;;;;;4.25;2.75;;;;;;;18.79;62.44;100277.84;6338496;22;20013;-71
2021/06/16 02:57:56;;;;;;;3.70;3.40;;;;;;;18.84;62.33;100280.22;6338783;22;20383;-71
2021/06/16 03:00:22;;;;;;;3.13;2.85;;;;;;;18.89;62.25;100270.53;6338738;22;20011;-70
2021/06/16 03:02:49;;;;;;;3.70;3.40;;;;;;;18.81;62.57;100273.41;6339089;22;20010;-71
2021/06/16 03:05:19;;;;;;;5.72;5.07;;;;;;;18.86;62.13;100274.19;6338302;22;20003;-70
2021/06/16 03:07:52;;;;;;;5.75;4.00;;;;;;;18.80;62.42;100282.28;6338670;22;20312;-71
2021/06/16 03:10:19;;;;;;;6.60;6.05;;;;;;;18.75;62.67;100266.63;6339103;22;20014;-71
2021/06/16 03:12:49;;;;;;;8.38;7.68;;;;;;;18.69;62.67;100268.28;6338374;22;20009;-70
2021/06/16 03:15:18;;;;;;;11.00;10.10;;;;;;;18.73;62.66;100269.06;6339041;22;20296;-71
2021/06/16 03:17:46;;;;;;;13.35;12.05;;;;;;;18.80;62.30;100269.00;6338299;22;20052;-71
2021/06/16 03:20:13;;;;;;;13.02;11.88;;;;;;;18.66;62.70;100268.28;6338663;22;20007;-71
2021/06/16 03:22:40;;;;;;;20.38;18.55;;;;;;;18.56;63.11;100267.97;6338215;22;20041;-70
2021/06/16 03:25:07;;;;;;;15.63;14.02;;;;;;;18.54;62.66;100266.78;6338908;22;20002;-71
2021/06/16 03:27:34;;;;;;;12.82;10.57;;;;;;;18.59;62.62;100274.78;6338243;22;19999;-71
2021/06/16 03:30:03;;;;;;;6.50;4.95;;;;;;;18.63;62.78;100286.81;6338247;22;20085;-71
2021/06/16 03:32:29;;;;;;;6.55;5.68;;;;;;;18.64;62.85;100279.97;6338511;22;20013;-70
2021/06/16 03:34:58;;;;;;;6.10;5.60;;;;;;;18.62;63.10;100281.59;6338856;22;20296;-70
2021/06/16 03:37:25;;;;;;;9.30;8.40;;;;;;;18.64;63.47;100273.53;6338169;22;20006;-72
2021/06/16 03:39:52;;;;;;;8.57;7.78;;;;;;;18.60;63.28;100273.56;6338296;22;20438;-70
2021/06/16 03:42:22;;;;;;;13.20;7.10;;;;;;;18.58;63.57;100276.00;6312028;22;20056;-71
2021/06/16 03:44:49;;;;;;;8.73;7.93;;;;;;;18.57;63.76;100272.38;6311729;22;20064;-71
2021/06/16 03:47:16;;;;;;;6.97;6.38;;;;;;;18.63;63.74;100274.75;6312529;22;20360;-71
2021/06/16 03:49:44;;;;;;;10.55;9.45;;;;;;;18.66;63.46;100269.09;6311884;22;20010;-71
2021/06/16 03:52:15;;;;;;;14.48;12.13;;;;;;;18.50;63.55;100241.44;6339231;22;20025;-71
2021/06/16 03:54:46;;;;;;;17.98;16.40;;;;;;;18.70;63.36;100267.06;6311342;22;20022;-70
2021/06/16 03:57:19;;;;;;;15.68;14.18;;;;;;;18.90;63.27;100272.13;6311959;22;20018;-71
2021/06/16 03:59:51;;;;;;;13.82;12.55;;;;;;;19.71;61.13;100270.44;6311796;22;20007;-71
2021/06/16 04:02:20;;;;;;;9.90;8.20;;;;;;;20.48;58.41;100277.41;6311696;22;20322;-71
2021/06/16 04:04:50;;;;;;;8.90;8.00;;;;;;;21.17;54.90;100284.28;6312070;22;20006;-71
2021/06/16 04:07:19;;;;;;;6.25;4.15;;;;;;;21.46;54.42;100284.53;6312072;22;20010;-71
2021/06/16 04:09:54;;;;;;;6.97;4.43;;;;;;;21.65;53.81;100285.78;6311669;22;20006;-71
2021/06/16 04:12:24;;;;;;;5.80;4.30;;;;;;;21.75;53.46;100293.25;6311775;22;19999;-70
2021/06/16 04:14:51;;;;;;;6.38;4.13;;;;;;;22.33;51.41;100272.97;6311723;22;20033;-70
2021/06/16 04:17:20;;;;;;;6.00;4.47;;;;;;;22.74;50.51;100280.84;6311659;22;20003;-71
2021/06/16 04:19:47;;;;;;;9.13;4.25;;;;;;;23.15;49.44;100293.59;6311579;22;20460;-72
2021/06/16 04:22:17;;;;;;;7.05;4.93;;;;;;;23.36;48.88;100287.34;6312112;22;20042;-70
2021/06/16 04:24:48;;;;;;;4.78;4.35;;;;;;;23.87;47.59;100281.06;6339586;22;20143;-71
2021/06/16 04:27:17;;;;;;;7.50;4.00;;;;;;;24.38;46.28;100287.56;6311505;22;20037;-71
2021/06/16 04:29:43;;;;;;;4.95;3.90;;;;;;;24.83;45.30;100290.16;6311490;22;20007;-71
2021/06/16 04:32:10;;;;;;;9.07;3.72;;;;;;;24.96;44.62;100292.16;6311624;22;20070;-71
2021/06/16 04:34:36;;;;;;;4.82;3.63;;;;;;;25.31;44.10;100290.16;6311383;22;20014;-70
2021/06/16 04:37:03;;;;;;;3.85;3.53;;;;;;;25.74;43.22;100295.09;6311434;22;20013;-71
2021/06/16 04:39:32;;;;;;;4.63;3.95;;;;;;;25.85;43.74;100300.38;6311400;22;20011;-71
2021/06/16 04:42:00;;;;;;;3.33;3.00;;;;;;;25.98;42.86;100292.53;6334770;22;20086;-71
2021/06/16 04:44:26;;;;;;;4.18;2.92;;;;;;;25.91;42.78;100297.72;6337719;22;20003;-71
2021/06/16 04:46:52;;;;;;;3.10;2.80;;;;;;;25.78;42.92;100295.75;6337720;22;20006;-70
2021/06/16 04:49:18;;;;;;;5.53;3.00;;;;;;;25.97;43.10;100302.34;6337783;22;20003;-71
2021/06/16 04:51:46;;;;;;;6.68;2.88;;;;;;;26.50;41.38;100299.47;6337694;22;20032;-71
2021/06/16 04:54:12;;;;;;;5.25;2.88;;;;;;;26.37;42.11;100295.91;6338333;22;20006;-71
2021/06/16 04:56:41;;;;;;;2.80;2.50;;;;;;;26.69;40.25;100285.28;6337454;22;20007;-71
2021/06/16 04:59:11;;;;;;;2.30;2.10;;;;;;;26.97;40.81;100298.31;6337572;22;20018;-71
2021/06/16 05:01:39;;;;;;;3.10;2.22;;;;;;;27.45;39.58;100304.41;6338268;22;20017;-72
2021/06/16 05:04:05;;;;;;;2.75;2.42;;;;;;;27.77;39.23;100294.41;6337463;22;20011;-70
2021/06/16 05:06:34;;;;;;;2.60;2.08;;;;;;;27.85;39.22;100292.78;6337639;22;20013;-72
2021/06/16 05:09:03;;;;;;;3.67;2.00;;;;;;;27.41;39.93;100304.56;6337682;22;20003;-72
2021/06/16 05:11:29;;;;;;;4.97;2.20;;;;;;;27.53;40.17;100299.94;6337956;22;20106;-72
2021/06/16 05:13:57;;;;;;;8.32;2.75;;;;;;;28.13;38.66;100299.25;6338649;22;20375;-73
2021/06/16 05:16:23;;;;;;;3.08;2.30;;;;;;;28.48;38.57;100293.06;6338778;22;20007;-72
2021/06/16 05:18:56;;;;;;;2.42;2.22;;;;;;;28.05;39.29;100292.25;6339364;22;20014;-72
2021/06/16 05:21:22;;;;;;;4.90;2.88;;;;;;;28.29;39.40;100300.94;6340924;22;20014;-71
2021/06/16 05:23:53;;;;;;;3.28;2.42;;;;;;;26.78;42.46;100302.41;6339688;22;20010;-73
2021/06/16 05:26:19;;;;;;;5.13;2.80;;;;;;;27.44;40.77;100296.31;6333234;22;20026;-73
2021/06/16 05:28:45;;;;;;;2.30;2.10;;;;;;;27.14;41.40;100301.69;6339020;22;20011;-72
2021/06/16 05:31:10;;;;;;;4.65;3.35;;;;;;;26.96;41.96;100295.94;6339555;22;20007;-71
2021/06/16 05:33:39;;;;;;;4.22;2.85;;;;;;;26.88;42.53;100304.78;6341177;22;20422;-73
2021/06/16 05:36:09;;;;;;;4.97;2.92;;;;;;;26.52;43.15;100294.06;6339486;22;20446;-71
2021/06/16 05:38:37;;;;;;;5.05;2.75;;;;;;;26.98;41.95;100291.34;6340023;22;20061;-73
2021/06/16 05:41:05;;;;;;;6.38;3.13;;;;;;;26.32;43.92;100290.81;6338757;22;20402;-71
2021/06/16 05:43:31;;;;;;;5.13;2.80;;;;;;;25.83;45.09;100294.34;6339010;22;20064;-71
2021/06/16 05:46:01;;;;;;;4.97;3.10;;;;;;;25.76;45.66;100291.78;6339137;22;20011;-73
2021/06/16 05:48:30;;;;;;;3.15;2.92;;;;;;;25.99;44.69;100293.31;6339194;22;20007;-71
2021/06/16 05:50:58;;;;;;;4.75;2.92;;;;;;;26.80;43.40;100299.88;6339353;22;20318;-72
2021/06/16 05:53:24;;;;;;;4.35;2.60;;;;;;;27.08;42.98;100290.13;6338987;22;20002;-71
2021/06/16 05:55:55;;;;;;;4.72;3.00;;;;;;;27.36;42.73;100290.13;6338932;22;20339;-72
2021/06/16 05:58:24;;;;;;;8.30;3.45;;;;;;;27.48;41.93;100288.34;6338931;22;20014;-71
2021/06/16 06:00:49;;;;;;;5.25;3.00;;;;;;;27.74;41.81;100298.19;6339167;22;20064;-71
2021/06/16 06:03:18;;;;;;;3.70;2.83;;;;;;;28.05;40.83;100295.13;6338667;22;20323;-72
2021/06/16 06:05:44;;;;;;;7.30;3.05;;;;;;;28.43;40.59;100296.59;6338519;22;20419;-72
2021/06/16 06:08:12;;;;;;;5.88;2.92;;;;;;;28.65;40.19;100302.84;6338643;22;20007;-72
2021/06/16 06:10:40;;;;;;;6.03;3.40;;;;;;;28.31;40.66;100297.59;6338576;22;20010;-72
2021/06/16 06:13:09;;;;;;;3.17;2.67;;;;;;;29.07;39.02;100299.13;6338634;22;20474;-73
2021/06/16 06:15:39;;;;;;;4.05;2.72;;;;;;;29.33;39.04;100298.59;6338895;22;20417;-72
2021/06/16 06:18:05;;;;;;;4.93;2.80;;;;;;;28.77;39.52;100303.13;6340797;22;20003;-72
2021/06/16 06:20:36;;;;;;;4.70;2.75;;;;;;;29.28;38.42;100299.28;6338947;22;20140;-72
2021/06/16 06:23:05;;;;;;;5.88;2.47;;;;;;;30.21;36.82;100298.75;6338688;22;20011;-72
2021/06/16 06:25:34;;;;;;;3.95;2.40;;;;;;;29.78;37.02;100296.66;6337988;22;20014;-72
2021/06/16 06:27:59;;;;;;;5.80;2.55;;;;;;;29.87;35.85;100297.31;6338260;22;20119;-74
2021/06/16 06:30:25;;;;;;;2.28;1.85;;;;;;;30.80;33.75;100302.78;6338699;22;20419;-73
2021/06/16 06:32:56;;;;;;;3.10;1.58;;;;;;;31.22;30.49;100305.97;6339708;22;20017;-72
2021/06/16 06:35:22;;;;;;;1.77;1.58;;;;;;;31.87;28.99;100302.03;6338749;22;20030;-74
2021/06/16 06:37:48;;;;;;;2.35;1.50;;;;;;;30.14;30.19;100304.84;6338500;22;20014;-73
2021/06/16 06:40:16;;;;;;;2.88;2.28;;;;;;;30.65;30.91;100314.28;6338530;22;20021;-72
2021/06/16 06:42:42;;;;;;;1.73;1.50;;;;;;;30.72;30.17;100297.44;6338409;22;20006;-72
2021/06/16 06:45:11;;;;;;;5.72;1.50;;;;;;;29.49;32.63;100301.81;6338227;22;20014;-72
2021/06/16 06:47:39;;;;;;;3.72;1.80;;;;;;;29.33;33.30;100292.88;6338392;22;20026;-73
2021/06/16 06:50:12;;;;;;;1.60;1.50;;;;;;;30.13;31.88;100297.53;6340012;22;20012;-73
2021/06/16 06:52:38;;;;;;;3.88;1.77;;;;;;;29.55;33.58;100304.81;6338508;22;20006;-73
2021/06/16 06:55:04;;;;;;;3.00;2.00;;;;;;;30.56;31.19;100300.84;6338427;22;20137;-72
2021/06/16 06:57:32;;;;;;;2.13;1.83;;;;;;;31.35;30.76;100308.50;6338749;22;20041;-73
2021/06/16 07:00:00;;;;;;;5.38;2.10;;;;;;;30.75;32.46;100310.03;6337867;22;20064;-73
2021/06/16 07:02:26;;;;;;;3.78;2.38;;;;;;;30.38;32.76;100309.69;6339122;22;20011;-72
2021/06/16 07:05:00;;;;;;;4.00;2.17;;;;;;;30.66;31.95;100301.50;6338637;22;20006;-74
2021/06/16 07:07:25;;;;;;;2.00;1.77;;;;;;;30.11;32.16;100305.06;6338274;22;20003;-73
2021/06/16 07:09:53;;;;;;;2.60;2.00;;;;;;;30.20;32.17;100305.78;6338486;22;20064;-74
2021/06/16 07:12:25;;;;;;;2.90;2.05;;;;;;;29.78;32.05;100320.38;6338975;22;20007;-73
2021/06/16 07:14:53;;;;;;;3.72;2.15;;;;;;;30.19;31.68;100321.38;6338269;22;20014;-73
2021/06/16 07:17:22;;;;;;;2.28;1.67;;;;;;;29.91;31.39;100322.94;6338199;22;20006;-72
2021/06/16 07:19:54;;;;;;;7.10;3.05;;;;;;;30.83;29.50;100327.63;6338181;22;20060;-73
2021/06/16 07:22:22;;;;;;;1.70;1.48;;;;;;;31.36;28.54;100326.53;6340225;22;20010;-73
2021/06/16 07:24:51;;;;;;;2.50;1.30;;;;;;;30.66;29.27;100328.13;6338639;22;20007;-73
2021/06/16 07:27:19;;;;;;;3.30;1.52;;;;;;;29.33;30.18;100321.53;6338192;22;20014;-73
2021/06/16 07:29:48;;;;;;;3.42;1.50;;;;;;;28.99;31.70;100320.03;6338550;22;20018;-72
2021/06/16 07:32:19;;;;;;;2.58;1.70;;;;;;;29.41;30.49;100322.75;6338220;22;20002;-73
2021/06/16 07:34:45;;;;;;;4.28;1.83;;;;;;;30.18;29.67;100324.75;6338228;22;20010;-72
2021/06/16 07:37:11;;;;;;;3.95;2.53;;;;;;;30.70;28.73;100325.88;6338382;22;20397;-73
2021/06/16 07:39:40;;;;;;;5.93;3.25;;;;;;;31.13;28.82;100329.09;6338222;22;20078;-72
2021/06/16 07:42:06;;;;;;;5.45;2.67;;;;;;;31.09;27.35;100325.63;6337499;22;20018;-71
2021/06/16 07:44:35;;;;;;;4.50;2.78;;;;;;;31.33;27.49;100328.34;6338006;22;20098;-72
2021/06/16 07:47:03;;;;;;;3.30;2.65;;;;;;;31.38;26.89;100332.59;6338202;22;20019;-71
2021/06/16 07:49:32;;;;;;;3.72;2.83;;;;;;;30.91;27.44;100334.53;6338080;22;20003;-73
2021/06/16 07:52:00;;;;;;;9.32;3.58;;;;;;;31.00;27.52;100331.53;6338140;22;20060;-72
2021/06/16 07:54:31;;;;;;;5.65;3.65;;;;;;;31.24;26.86;100322.69;6338103;22;20007;-72
2021/06/16 07:56:59;;;;;;;3.60;2.80;;;;;;;31.40;26.33;100329.97;6338007;22;20017;-72
2021/06/16 07:59:28;;;;;;;4.30;2.58;;;;;;;31.36;25.62;100335.16;6338747;22;20331;-72
2021/06/16 08:01:59;;;;;;;6.18;2.83;;;;;;;32.66;23.94;100333.09;6339030;22;20025;-73
2021/06/16 08:04:28;;;;;;;4.88;2.17;;;;;;;32.57;23.43;100328.28;6337202;22;20098;-73
2021/06/16 08:06:57;;;;;;;2.80;1.80;;;;;;;32.42;23.01;100319.00;6337934;22;20007;-72
2021/06/16 08:09:25;;;;;;;2.67;1.75;;;;;;;33.01;22.20;100332.00;6337941;22;20002;-74
2021/06/16 08:11:57;;;;;;;6.95;2.00;;;;;;;33.79;21.48;100329.44;6338550;22;20013;-74
2021/06/16 08:14:28;;;;;;;8.27;2.77;;;;;;;33.38;21.79;100326.13;6339252;22;20071;-74
2021/06/16 08:16:57;;;;;;;3.95;2.10;;;;;;;34.06;21.48;100332.94;6339607;22;20101;-72
2021/06/16 08:19:28;;;;;;;2.10;1.80;;;;;;;33.18;22.04;100332.06;6311630;22;20018;-73
2021/06/16 08:21:59;;;;;;;5.75;2.58;;;;;;;32.12;23.54;100324.25;6338450;22;20007;-73
2021/06/16 08:24:30;;;;;;;5.28;2.08;;;;;;;30.88;25.61;100332.66;6337848;22;20002;-73
2021/06/16 08:26:59;;;;;;;3.75;2.45;;;;;;;31.67;25.20;100335.25;6338249;22;20017;-72
2021/06/16 08:29:27;;;;;;;6.45;2.40;;;;;;;32.69;24.26;100337.78;6338033;22;20007;-71
2021/06/16 08:31:55;;;;;;;3.83;2.05;;;;;;;32.59;23.72;100339.28;6337616;22;20500;-72
2021/06/16 08:34:24;;;;;;;2.53;2.33;;;;;;;32.57;23.42;100328.28;6337348;22;20011;-72
2021/06/16 08:36:53;;;;;;;3.35;2.30;;;;;;;33.33;22.19;100333.47;6338045;22;20446;-73
2021/06/16 08:39:24;;;;;;;4.20;2.92;;;;;;;33.70;21.99;100332.56;6338057;22;20010;-73
2021/06/16 08:41:51;;;;;;;4.15;2.63;;;;;;;32.49;23.44;100329.28;6337041;22;20459;-72
2021/06/16 08:44:23;;;;;;;3.92;2.47;;;;;;;32.23;23.79;100330.09;6337777;22;20442;-72
2021/06/16 08:46:50;;;;;;;6.15;3.50;;;;;;;32.15;23.53;100326.09;6337715;22;20440;-72
2021/06/16 08:49:24;;;;;;;5.68;3.25;;;;;;;32.80;22.96;100326.34;6339084;22;20011;-73
2021/06/16 08:51:52;;;;;;;4.97;3.40;;;;;;;32.45;22.87;100328.72;6340155;22;20035;-73
2021/06/16 08:54:24;;;;;;;4.93;3.10;;;;;;;32.66;22.79;100324.44;6339776;22;20078;-72
2021/06/16 08:56:52;;;;;;;4.57;3.60;;;;;;;32.61;22.41;100321.53;6340408;22;20056;-73
2021/06/16 08:59:21;;;;;;;4.25;2.78;;;;;;;33.55;21.17;100326.22;6339152;22;20026;-72
2021/06/16 09:01:47;;;;;;;4.70;3.00;;;;;;;33.54;21.10;100318.88;6339767;22;20025;-72
2021/06/16 09:04:43;;;;;;;4.00;2.78;;;;;;;32.97;22.45;100322.78;6339406;22;20368;-72
2021/06/16 09:07:14;;;;;;;5.10;3.60;;;;;;;31.62;23.79;100323.69;6339016;22;20009;-74
2021/06/16 09:09:40;;;;;;;6.65;3.10;;;;;;;32.21;22.84;100321.16;6339339;22;20411;-74
2021/06/16 09:12:15;;;;;;;10.13;3.72;;;;;;;31.31;23.58;100316.53;6340629;22;20007;-72
2021/06/16 09:14:52;;;;;;;3.58;3.28;;;;;;;31.65;23.30;100320.63;6340952;22;20089;-73
2021/06/16 09:17:23;;;;;;;3.38;2.83;;;;;;;31.67;24.01;100317.22;6339433;22;20003;-73
2021/06/16 09:19:53;;;;;;;4.35;2.88;;;;;;;31.57;23.15;100322.34;6339908;22;20036;-73
2021/06/16 09:22:27;;;;;;;2.92;2.42;;;;;;;31.95;23.17;100314.66;6339334;22;20010;-74
2021/06/16 09:24:54;;;;;;;7.35;3.35;;;;;;;32.57;23.01;100316.00;6339174;22;20003;-72
2021/06/16 09:27:45;;;;;;;5.22;3.47;;;;;;;32.77;22.87;100315.88;6340884;22;20009;-73
2021/06/16 09:30:23;;;;;;;6.30;3.33;;;;;;;33.41;22.07;100321.44;6339324;22;20006;-73
2021/06/16 09:33:04;;;;;;;12.43;4.28;;;;;;;32.84;24.74;100318.25;6340182;22;20011;-75
2021/06/16 09:35:39;;;;;;;9.02;3.97;;;;;;;33.63;24.58;100315.78;6339050;22;20423;-72
2021/06/16 09:38:11;;;;;;;12.20;3.97;;;;;;;33.36;25.03;100305.69;6339502;22;20038;-73
2021/06/16 09:40:44;;;;;;;6.03;3.50;;;;;;;33.96;24.61;100317.16;6339118;22;20015;-72
2021/06/16 09:43:15;;;;;;;5.57;3.30;;;;;;;33.86;24.31;100314.50;6339044;22;20013;-73
2021/06/16 09:45:44;;;;;;;4.97;3.65;;;;;;;33.65;24.35;100306.59;6339065;22;20002;-72
2021/06/16 09:48:30;;;;;;;7.82;3.45;;;;;;;34.12;23.88;100311.41;6339742;22;20003;-73
2021/06/16 09:51:18;;;;;;;4.95;3.10;;;;;;;33.49;25.29;100306.03;6338887;22;20344;-73
2021/06/16 09:53:56;;;;;;;5.70;2.80;;;;;;;32.71;27.47;100315.03;6339367;22;20330;-73
2021/06/16 09:56:22;;;;;;;4.50;2.83;;;;;;;33.33;26.61;100312.50;6338686;22;20038;-73
2021/06/16 09:58:57;;;;;;;3.28;2.95;;;;;;;33.38;25.76;100305.94;6339297;22;20007;-72
2021/06/16 10:01:45;;;;;;;3.38;2.58;;;;;;;33.49;24.80;100313.88;6338566;22;20009;-72
2021/06/16 10:04:29;;;;;;;6.20;2.58;;;;;;;33.13;24.84;100301.13;6339375;22;20465;-73
2021/06/16 10:07:09;;;;;;;5.43;2.53;;;;;;;32.79;27.08;100301.72;6338723;22;20472;-72
2021/06/16 10:09:35;;;;;;;4.55;2.45;;;;;;;32.92;28.76;100309.97;6338876;22;20449;-73
2021/06/16 10:12:01;;;;;;;5.18;2.65;;;;;;;32.02;29.74;100302.69;6339701;22;20376;-74
2021/06/16 10:14:27;;;;;;;6.05;2.92;;;;;;;32.43;29.03;100308.28;6338741;22;20030;-73
2021/06/16 10:16:56;;;;;;;4.22;3.03;;;;;;;32.92;28.00;100304.19;6338668;22;19998;-73
2021/06/16 10:19:23;;;;;;;3.30;2.17;;;;;;;32.17;30.67;100300.47;6338522;22;20046;-73
2021/06/16 10:21:48;;;;;;;4.57;2.70;;;;;;;32.10;31.04;100298.06;6338888;22;20007;-74
2021/06/16 10:24:20;;;;;;;4.93;2.40;;;;;;;31.74;31.06;100294.53;6338290;22;20280;-75
2021/06/16 10:26:58;;;;;;;3.45;2.45;;;;;;;31.97;31.06;100307.09;6339108;22;20441;-73
2021/06/16 10:29:29;;;;;;;3.38;2.60;;;;;;;31.25;31.78;100304.97;6313669;22;20022;-74
2021/06/16 10:32:01;;;;;;;3.75;2.65;;;;;;;31.39;31.88;100302.53;6339057;22;20010;-72
2021/06/16 10:34:53;;;;;;;3.33;2.00;;;;;;;31.67;31.94;100295.00;6338730;22;20011;-70
2021/06/16 10:37:44;;;;;;;5.78;2.20;;;;;;;31.35;31.61;100308.50;6338051;22;20089;-72
2021/06/16 10:40:16;;;;;;;4.70;2.40;;;;;;;31.07;32.67;100313.88;6338824;22;20038;-71
2021/06/16 10:43:06;;;;;;;6.15;3.50;;;;;;;30.97;34.44;100306.69;6339643;22;20017;-73
2021/06/16 10:45:37;;;;;;;4.28;2.20;;;;;;;30.74;34.33;100309.25;6318831;22;20007;-74
2021/06/16 10:48:10;;;;;;;3.88;3.00;;;;;;;31.12;34.53;100301.66;6338546;22;20434;-72
2021/06/16 10:50:45;;;;;;;2.50;2.30;;;;;;;31.07;34.17;100302.38;6338501;22;20461;-73
2021/06/16 10:53:18;;;;;;;4.95;2.50;;;;;;;30.77;32.77;100308.22;6338510;22;20006;-73
2021/06/16 10:55:56;;;;;;;2.95;2.15;;;;;;;31.22;33.02;100305.97;6339450;22;20017;-73
2021/06/16 10:58:52;;;;;;;2.70;2.13;;;;;;;31.78;31.67;100297.19;6339203;22;20395;-71
2021/06/16 11:01:21;;;;;;;2.20;1.60;;;;;;;31.16;32.92;100302.25;6338390;22;20006;-71
2021/06/16 11:03:52;;;;;;;6.00;2.45;;;;;;;31.26;31.30;100311.50;6338271;22;20037;-72
2021/06/16 11:06:36;;;;;;;2.92;2.17;;;;;;;30.85;31.94;100300.00;6338417;22;20003;-73
2021/06/16 11:09:13;;;;;;;4.05;2.17;;;;;;;31.65;31.54;100293.94;6337841;22;20014;-72
2021/06/16 11:11:59;;;;;;;4.47;2.20;;;;;;;32.00;30.89;100290.91;6338544;22;20090;-73
2021/06/16 11:14:37;;;;;;;5.20;2.60;;;;;;;31.66;31.27;100278.25;6339048;22;20067;-72
2021/06/16 11:17:07;;;;;;;3.00;1.83;;;;;;;31.37;33.12;100282.09;6338257;22;20006;-72
2021/06/16 11:19:40;;;;;;;6.93;2.50;;;;;;;31.61;32.02;100285.53;6338988;22;20112;-73
2021/06/16 11:22:11;;;;;;;;;;;;;;;31.39;32.61;100274.59;6340908;22;19998;-72
2021/06/16 11:25:05;;;;;;;5.60;2.38;;;;;;;30.83;32.53;100268.09;6338225;22;19942;-72
2021/06/16 11:28:09;;;;;;;6.88;2.95;;;;;;;31.90;32.39;100269.34;6338262;22;20003;-74
2021/06/16 11:30:41;;;;;;;13.45;4.55;;;;;;;31.59;32.47;100267.19;6339239;22;20334;-71
2021/06/16 11:33:12;;;;;;;4.82;2.47;;;;;;;31.10;32.99;100264.00;6338218;22;20007;-73
2021/06/16 11:35:40;;;;;;;4.55;2.13;;;;;;;31.32;32.82;100268.47;6338279;22;20011;-74
2021/06/16 11:38:07;;;;;;;7.90;2.30;;;;;;;31.18;32.43;100268.03;6338190;22;20003;-72
2021/06/16 11:40:35;;;;;;;8.73;3.33;;;;;;;30.92;33.24;100272.91;6312034;22;20021;-72